sensor_id;sensor_type;location;lat;lon;timestamp;P1;durP1;ratioP1;P2;durP2;ratioP2
8819;SDS011;4446;50.876;4.736;2023-04-03T00:00:49;9.05;;;7.30;;
8819;SDS011;4446;50.876;4.736;2023-04-03T00:03:16;9.68;;;6.75;;
8819;SDS011;4446;50.876;4.736;2023-04-03T00:05:44;8.05;;;6.78;;
8819;SDS011;4446;50.876;4.736;2023-04-03T00:08:11;9.30;;;6.95;;
8819;SDS011;4446;50.876;4.736;2023-04-03T00:10:39;9.65;;;7.03;;
8819;SDS011;4446;50.876;4.736;2023-04-03T00:13:06;8.95;;;6.85;;
8819;SDS011;4446;50.876;4.736;2023-04-03T00:15:34;10.52;;;6.82;;
8819;SDS011;4446;50.876;4.736;2023-04-03T00:18:02;10.07;;;7.25;;
8819;SDS011;4446;50.876;4.736;2023-04-03T00:20:29;10.38;;;7.15;;
8819;SDS011;4446;50.876;4.736;2023-04-03T00:22:58;9.15;;;7.20;;
8819;SDS011;4446;50.876;4.736;2023-04-03T00:25:25;9.65;;;7.10;;
8819;SDS011;4446;50.876;4.736;2023-04-03T00:27:52;9.98;;;7.35;;
8819;SDS011;4446;50.876;4.736;2023-04-03T00:30:20;12.73;;;7.47;;
8819;SDS011;4446;50.876;4.736;2023-04-03T00:32:47;11.88;;;7.30;;
8819;SDS011;4446;50.876;4.736;2023-04-03T00:35:15;10.07;;;6.93;;
8819;SDS011;4446;50.876;4.736;2023-04-03T00:37:42;8.50;;;6.97;;
8819;SDS011;4446;50.876;4.736;2023-04-03T00:40:11;10.05;;;7.28;;
8819;SDS011;4446;50.876;4.736;2023-04-03T00:42:40;10.93;;;7.57;;
8819;SDS011;4446;50.876;4.736;2023-04-03T00:45:23;8.20;;;6.90;;
8819;SDS011;4446;50.876;4.736;2023-04-03T00:47:52;9.90;;;7.75;;
8819;SDS011;4446;50.876;4.736;2023-04-03T00:50:20;9.20;;;7.45;;
8819;SDS011;4446;50.876;4.736;2023-04-03T00:52:47;12.50;;;7.72;;
8819;SDS011;4446;50.876;4.736;2023-04-03T00:55:16;9.60;;;7.53;;
8819;SDS011;4446;50.876;4.736;2023-04-03T00:57:43;10.57;;;7.60;;
8819;SDS011;4446;50.876;4.736;2023-04-03T01:00:13;12.30;;;7.70;;
8819;SDS011;4446;50.876;4.736;2023-04-03T01:02:42;11.40;;;7.95;;
8819;SDS011;4446;50.876;4.736;2023-04-03T01:05:09;10.32;;;7.57;;
8819;SDS011;4446;50.876;4.736;2023-04-03T01:07:37;10.60;;;7.68;;
8819;SDS011;4446;50.876;4.736;2023-04-03T01:10:08;10.38;;;7.72;;
8819;SDS011;4446;50.876;4.736;2023-04-03T01:12:40;11.15;;;7.82;;
8819;SDS011;4446;50.876;4.736;2023-04-03T01:15:10;10.85;;;7.68;;
8819;SDS011;4446;50.876;4.736;2023-04-03T01:17:39;12.48;;;8.23;;
8819;SDS011;4446;50.876;4.736;2023-04-03T01:20:14;10.65;;;8.10;;
8819;SDS011;4446;50.876;4.736;2023-04-03T01:23:04;14.13;;;8.50;;
8819;SDS011;4446;50.876;4.736;2023-04-03T01:25:55;11.73;;;8.75;;
8819;SDS011;4446;50.876;4.736;2023-04-03T01:28:25;12.32;;;8.35;;
8819;SDS011;4446;50.876;4.736;2023-04-03T01:30:56;12.48;;;8.90;;
8819;SDS011;4446;50.876;4.736;2023-04-03T01:33:30;13.15;;;8.13;;
8819;SDS011;4446;50.876;4.736;2023-04-03T01:35:57;12.82;;;8.30;;
8819;SDS011;4446;50.876;4.736;2023-04-03T01:38:24;11.50;;;7.93;;
8819;SDS011;4446;50.876;4.736;2023-04-03T01:40:51;14.45;;;8.23;;
8819;SDS011;4446;50.876;4.736;2023-04-03T01:43:18;10.40;;;8.18;;
8819;SDS011;4446;50.876;4.736;2023-04-03T01:45:45;11.35;;;8.10;;
8819;SDS011;4446;50.876;4.736;2023-04-03T01:48:14;11.73;;;8.45;;
8819;SDS011;4446;50.876;4.736;2023-04-03T01:50:43;12.95;;;8.38;;
8819;SDS011;4446;50.876;4.736;2023-04-03T01:53:09;9.52;;;7.32;;
8819;SDS011;4446;50.876;4.736;2023-04-03T01:55:36;10.48;;;8.27;;
8819;SDS011;4446;50.876;4.736;2023-04-03T01:58:03;12.18;;;8.02;;
8819;SDS011;4446;50.876;4.736;2023-04-03T02:00:30;12.50;;;7.95;;
8819;SDS011;4446;50.876;4.736;2023-04-03T02:02:57;10.20;;;7.57;;
8819;SDS011;4446;50.876;4.736;2023-04-03T02:05:24;9.55;;;7.20;;
8819;SDS011;4446;50.876;4.736;2023-04-03T02:07:52;11.65;;;7.60;;
8819;SDS011;4446;50.876;4.736;2023-04-03T02:10:19;9.88;;;7.10;;
8819;SDS011;4446;50.876;4.736;2023-04-03T02:12:46;10.45;;;7.63;;
8819;SDS011;4446;50.876;4.736;2023-04-03T02:15:13;11.52;;;7.65;;
8819;SDS011;4446;50.876;4.736;2023-04-03T02:17:40;9.10;;;6.97;;
8819;SDS011;4446;50.876;4.736;2023-04-03T02:20:07;9.63;;;7.18;;
8819;SDS011;4446;50.876;4.736;2023-04-03T02:22:34;11.43;;;7.10;;
8819;SDS011;4446;50.876;4.736;2023-04-03T02:25:03;8.77;;;6.82;;
8819;SDS011;4446;50.876;4.736;2023-04-03T02:27:30;10.13;;;7.45;;
8819;SDS011;4446;50.876;4.736;2023-04-03T02:29:57;10.32;;;7.53;;
8819;SDS011;4446;50.876;4.736;2023-04-03T02:32:24;12.30;;;7.47;;
8819;SDS011;4446;50.876;4.736;2023-04-03T02:34:51;11.10;;;7.50;;
8819;SDS011;4446;50.876;4.736;2023-04-03T02:37:18;9.65;;;6.82;;
8819;SDS011;4446;50.876;4.736;2023-04-03T02:39:45;9.02;;;6.75;;
8819;SDS011;4446;50.876;4.736;2023-04-03T02:42:14;9.02;;;7.18;;
8819;SDS011;4446;50.876;4.736;2023-04-03T02:44:41;10.60;;;7.90;;
8819;SDS011;4446;50.876;4.736;2023-04-03T02:47:07;10.18;;;6.53;;
8819;SDS011;4446;50.876;4.736;2023-04-03T02:49:34;10.73;;;7.07;;
8819;SDS011;4446;50.876;4.736;2023-04-03T02:52:01;10.73;;;6.82;;
8819;SDS011;4446;50.876;4.736;2023-04-03T02:54:28;8.43;;;6.97;;
8819;SDS011;4446;50.876;4.736;2023-04-03T02:56:55;9.73;;;6.95;;
8819;SDS011;4446;50.876;4.736;2023-04-03T02:59:24;11.82;;;7.45;;
8819;SDS011;4446;50.876;4.736;2023-04-03T03:01:51;9.40;;;7.28;;
8819;SDS011;4446;50.876;4.736;2023-04-03T03:04:18;10.18;;;7.32;;
8819;SDS011;4446;50.876;4.736;2023-04-03T03:06:45;9.65;;;6.68;;
8819;SDS011;4446;50.876;4.736;2023-04-03T03:09:12;10.25;;;7.20;;
8819;SDS011;4446;50.876;4.736;2023-04-03T03:11:39;10.30;;;7.43;;
8819;SDS011;4446;50.876;4.736;2023-04-03T03:14:06;9.82;;;7.13;;
8819;SDS011;4446;50.876;4.736;2023-04-03T03:16:36;10.20;;;7.47;;
8819;SDS011;4446;50.876;4.736;2023-04-03T03:19:03;10.25;;;7.47;;
8819;SDS011;4446;50.876;4.736;2023-04-03T03:21:30;12.02;;;7.82;;
8819;SDS011;4446;50.876;4.736;2023-04-03T03:23:57;12.73;;;8.10;;
8819;SDS011;4446;50.876;4.736;2023-04-03T03:26:23;12.40;;;7.90;;
8819;SDS011;4446;50.876;4.736;2023-04-03T03:28:51;11.32;;;7.80;;
8819;SDS011;4446;50.876;4.736;2023-04-03T03:31:18;10.07;;;8.07;;
8819;SDS011;4446;50.876;4.736;2023-04-03T03:33:46;12.35;;;8.82;;
8819;SDS011;4446;50.876;4.736;2023-04-03T03:36:13;10.45;;;8.15;;
8819;SDS011;4446;50.876;4.736;2023-04-03T03:38:40;12.18;;;8.45;;
8819;SDS011;4446;50.876;4.736;2023-04-03T03:41:07;12.57;;;8.43;;
8819;SDS011;4446;50.876;4.736;2023-04-03T03:43:34;11.85;;;8.23;;
8819;SDS011;4446;50.876;4.736;2023-04-03T03:46:01;13.15;;;9.10;;
8819;SDS011;4446;50.876;4.736;2023-04-03T03:48:28;11.30;;;8.55;;
8819;SDS011;4446;50.876;4.736;2023-04-03T03:50:56;12.27;;;8.93;;
8819;SDS011;4446;50.876;4.736;2023-04-03T03:53:23;13.05;;;8.68;;
8819;SDS011;4446;50.876;4.736;2023-04-03T03:55:50;12.75;;;8.60;;
8819;SDS011;4446;50.876;4.736;2023-04-03T03:58:17;12.57;;;8.68;;
8819;SDS011;4446;50.876;4.736;2023-04-03T04:00:44;14.60;;;9.20;;
8819;SDS011;4446;50.876;4.736;2023-04-03T04:03:11;11.23;;;8.18;;
8819;SDS011;4446;50.876;4.736;2023-04-03T04:05:38;12.68;;;9.05;;
8819;SDS011;4446;50.876;4.736;2023-04-03T04:08:06;12.45;;;8.48;;
8819;SDS011;4446;50.876;4.736;2023-04-03T04:10:33;12.82;;;8.55;;
8819;SDS011;4446;50.876;4.736;2023-04-03T04:13:01;13.10;;;9.07;;
8819;SDS011;4446;50.876;4.736;2023-04-03T04:15:28;15.60;;;9.73;;
8819;SDS011;4446;50.876;4.736;2023-04-03T04:17:56;16.45;;;10.07;;
8819;SDS011;4446;50.876;4.736;2023-04-03T04:20:23;14.15;;;9.77;;
8819;SDS011;4446;50.876;4.736;2023-04-03T04:22:50;15.18;;;10.00;;
8819;SDS011;4446;50.876;4.736;2023-04-03T04:25:18;13.90;;;10.27;;
8819;SDS011;4446;50.876;4.736;2023-04-03T04:27:45;15.27;;;10.15;;
8819;SDS011;4446;50.876;4.736;2023-04-03T04:30:12;18.75;;;11.18;;
8819;SDS011;4446;50.876;4.736;2023-04-03T04:32:39;14.13;;;10.70;;
8819;SDS011;4446;50.876;4.736;2023-04-03T04:35:07;17.05;;;10.75;;
8819;SDS011;4446;50.876;4.736;2023-04-03T04:37:34;16.23;;;11.25;;
8819;SDS011;4446;50.876;4.736;2023-04-03T04:40:01;13.45;;;10.20;;
8819;SDS011;4446;50.876;4.736;2023-04-03T04:42:29;17.05;;;10.98;;
8819;SDS011;4446;50.876;4.736;2023-04-03T04:44:56;15.55;;;10.88;;
8819;SDS011;4446;50.876;4.736;2023-04-03T04:47:23;15.18;;;11.15;;
8819;SDS011;4446;50.876;4.736;2023-04-03T04:49:50;18.85;;;10.90;;
8819;SDS011;4446;50.876;4.736;2023-04-03T04:52:17;17.13;;;12.00;;
8819;SDS011;4446;50.876;4.736;2023-04-03T04:54:44;16.98;;;11.85;;
8819;SDS011;4446;50.876;4.736;2023-04-03T04:57:11;15.35;;;11.27;;
8819;SDS011;4446;50.876;4.736;2023-04-03T04:59:39;17.35;;;11.40;;
8819;SDS011;4446;50.876;4.736;2023-04-03T05:02:06;16.15;;;11.00;;
8819;SDS011;4446;50.876;4.736;2023-04-03T05:04:33;14.60;;;10.90;;
8819;SDS011;4446;50.876;4.736;2023-04-03T05:07:00;16.98;;;10.27;;
8819;SDS011;4446;50.876;4.736;2023-04-03T05:09:27;15.55;;;10.60;;
8819;SDS011;4446;50.876;4.736;2023-04-03T05:11:54;14.27;;;10.20;;
8819;SDS011;4446;50.876;4.736;2023-04-03T05:14:21;14.73;;;10.23;;
8819;SDS011;4446;50.876;4.736;2023-04-03T05:16:49;16.52;;;10.88;;
8819;SDS011;4446;50.876;4.736;2023-04-03T05:19:18;14.40;;;10.13;;
8819;SDS011;4446;50.876;4.736;2023-04-03T05:21:45;16.67;;;10.73;;
8819;SDS011;4446;50.876;4.736;2023-04-03T05:24:13;15.70;;;10.85;;
8819;SDS011;4446;50.876;4.736;2023-04-03T05:26:41;17.52;;;10.65;;
8819;SDS011;4446;50.876;4.736;2023-04-03T05:29:08;16.00;;;11.25;;
8819;SDS011;4446;50.876;4.736;2023-04-03T05:31:35;16.92;;;11.35;;
8819;SDS011;4446;50.876;4.736;2023-04-03T05:34:03;17.45;;;11.75;;
8819;SDS011;4446;50.876;4.736;2023-04-03T05:36:30;16.73;;;12.52;;
8819;SDS011;4446;50.876;4.736;2023-04-03T05:38:57;19.35;;;13.02;;
8819;SDS011;4446;50.876;4.736;2023-04-03T05:41:24;18.08;;;13.73;;
8819;SDS011;4446;50.876;4.736;2023-04-03T05:43:51;20.30;;;13.48;;
8819;SDS011;4446;50.876;4.736;2023-04-03T05:46:18;18.27;;;14.00;;
8819;SDS011;4446;50.876;4.736;2023-04-03T05:48:47;20.60;;;13.25;;
8819;SDS011;4446;50.876;4.736;2023-04-03T05:51:16;22.27;;;14.63;;
8819;SDS011;4446;50.876;4.736;2023-04-03T05:53:44;20.17;;;14.82;;
8819;SDS011;4446;50.876;4.736;2023-04-03T05:56:12;21.00;;;14.32;;
8819;SDS011;4446;50.876;4.736;2023-04-03T05:58:39;24.10;;;14.88;;
8819;SDS011;4446;50.876;4.736;2023-04-03T06:01:06;26.30;;;15.27;;
8819;SDS011;4446;50.876;4.736;2023-04-03T06:03:34;20.60;;;15.05;;
8819;SDS011;4446;50.876;4.736;2023-04-03T06:06:03;23.83;;;16.30;;
8819;SDS011;4446;50.876;4.736;2023-04-03T06:08:32;24.10;;;16.10;;
8819;SDS011;4446;50.876;4.736;2023-04-03T06:11:00;25.73;;;16.58;;
8819;SDS011;4446;50.876;4.736;2023-04-03T06:13:27;25.15;;;17.00;;
8819;SDS011;4446;50.876;4.736;2023-04-03T06:15:54;25.55;;;17.33;;
8819;SDS011;4446;50.876;4.736;2023-04-03T06:18:21;24.98;;;17.73;;
8819;SDS011;4446;50.876;4.736;2023-04-03T06:20:49;26.40;;;16.90;;
8819;SDS011;4446;50.876;4.736;2023-04-03T06:23:16;25.20;;;17.58;;
8819;SDS011;4446;50.876;4.736;2023-04-03T06:25:44;25.10;;;18.17;;
8819;SDS011;4446;50.876;4.736;2023-04-03T06:28:11;27.50;;;18.15;;
8819;SDS011;4446;50.876;4.736;2023-04-03T06:30:38;28.23;;;19.65;;
8819;SDS011;4446;50.876;4.736;2023-04-03T06:33:05;28.95;;;18.73;;
8819;SDS011;4446;50.876;4.736;2023-04-03T06:35:32;24.42;;;18.33;;
8819;SDS011;4446;50.876;4.736;2023-04-03T06:38:00;26.95;;;18.88;;
8819;SDS011;4446;50.876;4.736;2023-04-03T06:40:29;25.73;;;19.70;;
8819;SDS011;4446;50.876;4.736;2023-04-03T06:42:57;28.38;;;20.25;;
8819;SDS011;4446;50.876;4.736;2023-04-03T06:45:24;28.27;;;20.60;;
8819;SDS011;4446;50.876;4.736;2023-04-03T06:47:51;27.77;;;20.35;;
8819;SDS011;4446;50.876;4.736;2023-04-03T06:50:18;31.50;;;19.45;;
8819;SDS011;4446;50.876;4.736;2023-04-03T06:52:45;28.75;;;19.80;;
8819;SDS011;4446;50.876;4.736;2023-04-03T06:55:12;27.17;;;20.02;;
8819;SDS011;4446;50.876;4.736;2023-04-03T06:57:39;27.00;;;19.95;;
8819;SDS011;4446;50.876;4.736;2023-04-03T07:00:08;27.55;;;19.13;;
8819;SDS011;4446;50.876;4.736;2023-04-03T07:02:37;26.55;;;18.75;;
8819;SDS011;4446;50.876;4.736;2023-04-03T07:05:04;26.30;;;19.95;;
8819;SDS011;4446;50.876;4.736;2023-04-03T07:07:31;25.90;;;19.27;;
8819;SDS011;4446;50.876;4.736;2023-04-03T07:09:59;29.73;;;19.65;;
8819;SDS011;4446;50.876;4.736;2023-04-03T07:12:26;27.42;;;19.20;;
8819;SDS011;4446;50.876;4.736;2023-04-03T07:14:53;27.13;;;19.10;;
8819;SDS011;4446;50.876;4.736;2023-04-03T07:17:21;23.20;;;17.90;;
8819;SDS011;4446;50.876;4.736;2023-04-03T07:19:48;25.08;;;19.25;;
8819;SDS011;4446;50.876;4.736;2023-04-03T07:22:15;23.27;;;17.33;;
8819;SDS011;4446;50.876;4.736;2023-04-03T07:24:42;20.70;;;16.80;;
8819;SDS011;4446;50.876;4.736;2023-04-03T07:27:09;21.58;;;16.67;;
8819;SDS011;4446;50.876;4.736;2023-04-03T07:29:37;19.77;;;15.35;;
8819;SDS011;4446;50.876;4.736;2023-04-03T07:32:05;19.48;;;14.90;;
8819;SDS011;4446;50.876;4.736;2023-04-03T07:34:34;20.17;;;15.20;;
8819;SDS011;4446;50.876;4.736;2023-04-03T07:37:00;18.95;;;14.55;;
8819;SDS011;4446;50.876;4.736;2023-04-03T07:39:28;19.15;;;13.70;;
8819;SDS011;4446;50.876;4.736;2023-04-03T07:41:55;20.30;;;13.43;;
8819;SDS011;4446;50.876;4.736;2023-04-03T07:44:22;15.70;;;13.35;;
8819;SDS011;4446;50.876;4.736;2023-04-03T07:46:49;17.80;;;12.00;;
8819;SDS011;4446;50.876;4.736;2023-04-03T07:49:16;18.63;;;12.23;;
8819;SDS011;4446;50.876;4.736;2023-04-03T07:51:45;15.68;;;11.07;;
8819;SDS011;4446;50.876;4.736;2023-04-03T07:54:13;15.45;;;11.02;;
8819;SDS011;4446;50.876;4.736;2023-04-03T07:56:40;14.85;;;10.73;;
8819;SDS011;4446;50.876;4.736;2023-04-03T07:59:07;14.75;;;10.20;;
8819;SDS011;4446;50.876;4.736;2023-04-03T08:01:35;11.00;;;8.52;;
8819;SDS011;4446;50.876;4.736;2023-04-03T08:04:02;11.60;;;9.13;;
8819;SDS011;4446;50.876;4.736;2023-04-03T08:06:30;10.23;;;8.15;;
8819;SDS011;4446;50.876;4.736;2023-04-03T08:09:00;11.48;;;8.25;;
8819;SDS011;4446;50.876;4.736;2023-04-03T08:11:29;11.63;;;8.10;;
8819;SDS011;4446;50.876;4.736;2023-04-03T08:13:56;15.10;;;8.13;;
8819;SDS011;4446;50.876;4.736;2023-04-03T08:16:23;10.07;;;7.40;;
8819;SDS011;4446;50.876;4.736;2023-04-03T08:18:51;9.52;;;7.13;;
8819;SDS011;4446;50.876;4.736;2023-04-03T08:21:18;10.18;;;6.90;;
8819;SDS011;4446;50.876;4.736;2023-04-03T08:23:47;13.07;;;7.63;;
8819;SDS011;4446;50.876;4.736;2023-04-03T08:26:18;10.38;;;7.10;;
8819;SDS011;4446;50.876;4.736;2023-04-03T08:28:45;8.18;;;7.07;;
8819;SDS011;4446;50.876;4.736;2023-04-03T08:31:13;9.85;;;6.43;;
8819;SDS011;4446;50.876;4.736;2023-04-03T08:33:42;7.53;;;6.35;;
8819;SDS011;4446;50.876;4.736;2023-04-03T08:36:16;10.18;;;6.45;;
8819;SDS011;4446;50.876;4.736;2023-04-03T08:38:45;8.93;;;5.60;;
8819;SDS011;4446;50.876;4.736;2023-04-03T08:41:14;8.15;;;5.72;;
8819;SDS011;4446;50.876;4.736;2023-04-03T08:44:02;6.85;;;5.45;;
8819;SDS011;4446;50.876;4.736;2023-04-03T08:46:44;6.32;;;5.07;;
8819;SDS011;4446;50.876;4.736;2023-04-03T08:49:23;8.40;;;4.97;;
8819;SDS011;4446;50.876;4.736;2023-04-03T08:51:53;6.68;;;5.00;;
8819;SDS011;4446;50.876;4.736;2023-04-03T08:54:28;8.30;;;4.93;;
8819;SDS011;4446;50.876;4.736;2023-04-03T08:56:58;7.30;;;4.40;;
8819;SDS011;4446;50.876;4.736;2023-04-03T08:59:31;4.90;;;3.90;;
8819;SDS011;4446;50.876;4.736;2023-04-03T09:02:01;5.18;;;4.15;;
8819;SDS011;4446;50.876;4.736;2023-04-03T09:04:39;4.65;;;4.03;;
8819;SDS011;4446;50.876;4.736;2023-04-03T09:07:07;7.28;;;3.40;;
8819;SDS011;4446;50.876;4.736;2023-04-03T09:09:41;6.28;;;3.30;;
8819;SDS011;4446;50.876;4.736;2023-04-03T09:12:24;6.38;;;3.70;;
8819;SDS011;4446;50.876;4.736;2023-04-03T09:14:57;6.15;;;3.35;;
8819;SDS011;4446;50.876;4.736;2023-04-03T09:17:35;4.70;;;3.20;;
8819;SDS011;4446;50.876;4.736;2023-04-03T09:20:11;5.45;;;3.70;;
8819;SDS011;4446;50.876;4.736;2023-04-03T09:22:45;4.10;;;3.30;;
8819;SDS011;4446;50.876;4.736;2023-04-03T09:25:13;5.47;;;3.67;;
8819;SDS011;4446;50.876;4.736;2023-04-03T09:27:45;4.50;;;3.30;;
8819;SDS011;4446;50.876;4.736;2023-04-03T09:30:13;6.07;;;3.80;;
8819;SDS011;4446;50.876;4.736;2023-04-03T09:32:41;4.35;;;3.20;;
8819;SDS011;4446;50.876;4.736;2023-04-03T09:35:22;4.05;;;3.50;;
8819;SDS011;4446;50.876;4.736;2023-04-03T09:37:51;6.95;;;3.55;;
8819;SDS011;4446;50.876;4.736;2023-04-03T09:40:30;4.70;;;3.47;;
8819;SDS011;4446;50.876;4.736;2023-04-03T09:43:02;4.35;;;3.63;;
8819;SDS011;4446;50.876;4.736;2023-04-03T09:45:45;6.85;;;3.92;;
8819;SDS011;4446;50.876;4.736;2023-04-03T09:48:15;6.93;;;3.85;;
8819;SDS011;4446;50.876;4.736;2023-04-03T09:50:57;6.57;;;3.78;;
8819;SDS011;4446;50.876;4.736;2023-04-03T09:53:28;4.72;;;3.10;;
8819;SDS011;4446;50.876;4.736;2023-04-03T09:55:57;5.38;;;3.70;;
8819;SDS011;4446;50.876;4.736;2023-04-03T09:58:27;4.45;;;3.00;;
8819;SDS011;4446;50.876;4.736;2023-04-03T10:00:56;5.72;;;3.60;;
8819;SDS011;4446;50.876;4.736;2023-04-03T10:03:25;5.75;;;3.67;;
8819;SDS011;4446;50.876;4.736;2023-04-03T10:05:55;5.43;;;3.33;;
8819;SDS011;4446;50.876;4.736;2023-04-03T10:08:24;6.75;;;3.53;;
8819;SDS011;4446;50.876;4.736;2023-04-03T10:11:09;6.45;;;3.63;;
8819;SDS011;4446;50.876;4.736;2023-04-03T10:13:53;4.75;;;3.53;;
8819;SDS011;4446;50.876;4.736;2023-04-03T10:16:24;4.90;;;3.00;;
8819;SDS011;4446;50.876;4.736;2023-04-03T10:19:01;6.07;;;3.28;;
8819;SDS011;4446;50.876;4.736;2023-04-03T10:21:38;3.50;;;2.78;;
8819;SDS011;4446;50.876;4.736;2023-04-03T10:24:11;4.22;;;2.90;;
8819;SDS011;4446;50.876;4.736;2023-04-03T10:26:45;4.32;;;2.47;;
8819;SDS011;4446;50.876;4.736;2023-04-03T10:29:23;6.30;;;3.05;;
8819;SDS011;4446;50.876;4.736;2023-04-03T10:32:02;4.43;;;2.70;;
8819;SDS011;4446;50.876;4.736;2023-04-03T10:34:39;5.20;;;2.50;;
8819;SDS011;4446;50.876;4.736;2023-04-03T10:37:10;4.43;;;2.47;;
8819;SDS011;4446;50.876;4.736;2023-04-03T10:39:49;4.45;;;2.22;;
8819;SDS011;4446;50.876;4.736;2023-04-03T10:42:22;3.35;;;2.30;;
8819;SDS011;4446;50.876;4.736;2023-04-03T10:45:06;3.50;;;2.20;;
8819;SDS011;4446;50.876;4.736;2023-04-03T10:47:46;3.85;;;2.33;;
8819;SDS011;4446;50.876;4.736;2023-04-03T10:50:27;3.47;;;2.22;;
8819;SDS011;4446;50.876;4.736;2023-04-03T10:53:01;2.72;;;2.25;;
8819;SDS011;4446;50.876;4.736;2023-04-03T10:55:34;4.20;;;2.33;;
8819;SDS011;4446;50.876;4.736;2023-04-03T10:58:08;2.45;;;2.08;;
8819;SDS011;4446;50.876;4.736;2023-04-03T11:00:46;4.40;;;2.33;;
8819;SDS011;4446;50.876;4.736;2023-04-03T11:03:17;3.08;;;2.13;;
8819;SDS011;4446;50.876;4.736;2023-04-03T11:05:56;2.50;;;1.80;;
8819;SDS011;4446;50.876;4.736;2023-04-03T11:08:26;3.78;;;2.20;;
8819;SDS011;4446;50.876;4.736;2023-04-03T11:10:59;5.18;;;2.30;;
8819;SDS011;4446;50.876;4.736;2023-04-03T11:13:32;2.80;;;2.00;;
8819;SDS011;4446;50.876;4.736;2023-04-03T11:16:02;3.97;;;2.10;;
8819;SDS011;4446;50.876;4.736;2023-04-03T11:18:32;3.63;;;2.17;;
8819;SDS011;4446;50.876;4.736;2023-04-03T11:21:04;3.20;;;2.10;;
8819;SDS011;4446;50.876;4.736;2023-04-03T11:23:36;3.58;;;1.88;;
8819;SDS011;4446;50.876;4.736;2023-04-03T11:26:07;3.10;;;1.70;;
8819;SDS011;4446;50.876;4.736;2023-04-03T11:28:37;3.22;;;1.88;;
8819;SDS011;4446;50.876;4.736;2023-04-03T11:31:09;3.00;;;1.83;;
8819;SDS011;4446;50.876;4.736;2023-04-03T11:33:50;2.40;;;1.83;;
8819;SDS011;4446;50.876;4.736;2023-04-03T11:36:25;4.10;;;1.95;;
8819;SDS011;4446;50.876;4.736;2023-04-03T11:38:56;2.90;;;1.70;;
8819;SDS011;4446;50.876;4.736;2023-04-03T11:41:27;2.10;;;1.75;;
8819;SDS011;4446;50.876;4.736;2023-04-03T11:43:57;3.75;;;2.33;;
8819;SDS011;4446;50.876;4.736;2023-04-03T11:58:21;2.78;;;1.65;;
8819;SDS011;4446;50.876;4.736;2023-04-03T12:12:55;2.30;;;1.63;;
8819;SDS011;4446;50.876;4.736;2023-04-03T12:18:38;2.75;;;1.73;;
8819;SDS011;4446;50.876;4.736;2023-04-03T12:21:12;2.67;;;1.50;;
8819;SDS011;4446;50.876;4.736;2023-04-03T12:23:57;4.05;;;1.75;;
8819;SDS011;4446;50.876;4.736;2023-04-03T12:26:28;2.42;;;1.60;;
8819;SDS011;4446;50.876;4.736;2023-04-03T12:28:58;2.35;;;1.65;;
8819;SDS011;4446;50.876;4.736;2023-04-03T12:31:33;2.28;;;1.60;;
8819;SDS011;4446;50.876;4.736;2023-04-03T12:34:12;2.33;;;1.58;;
8819;SDS011;4446;50.876;4.736;2023-04-03T12:36:50;2.45;;;1.50;;
8819;SDS011;4446;50.876;4.736;2023-04-03T12:39:33;2.38;;;1.70;;
8819;SDS011;4446;50.876;4.736;2023-04-03T12:42:17;2.95;;;1.50;;
8819;SDS011;4446;50.876;4.736;2023-04-03T12:44:58;2.00;;;1.70;;
8819;SDS011;4446;50.876;4.736;2023-04-03T12:47:36;2.55;;;1.73;;
8819;SDS011;4446;50.876;4.736;2023-04-03T12:50:14;2.70;;;1.70;;
8819;SDS011;4446;50.876;4.736;2023-04-03T12:52:49;3.28;;;1.90;;
8819;SDS011;4446;50.876;4.736;2023-04-03T12:55:20;2.92;;;1.73;;
8819;SDS011;4446;50.876;4.736;2023-04-03T12:57:48;2.38;;;1.70;;
8819;SDS011;4446;50.876;4.736;2023-04-03T13:00:19;2.50;;;1.83;;
8819;SDS011;4446;50.876;4.736;2023-04-03T13:02:54;2.65;;;1.73;;
8819;SDS011;4446;50.876;4.736;2023-04-03T13:05:21;2.63;;;1.90;;
8819;SDS011;4446;50.876;4.736;2023-04-03T13:07:52;4.20;;;2.10;;
8819;SDS011;4446;50.876;4.736;2023-04-03T13:10:23;3.90;;;1.85;;
8819;SDS011;4446;50.876;4.736;2023-04-03T13:12:51;3.45;;;2.13;;
8819;SDS011;4446;50.876;4.736;2023-04-03T13:15:19;3.97;;;2.05;;
8819;SDS011;4446;50.876;4.736;2023-04-03T13:17:48;3.75;;;2.15;;
8819;SDS011;4446;50.876;4.736;2023-04-03T13:20:19;3.25;;;1.92;;
8819;SDS011;4446;50.876;4.736;2023-04-03T13:22:51;3.50;;;2.10;;
8819;SDS011;4446;50.876;4.736;2023-04-03T13:25:23;2.70;;;1.98;;
8819;SDS011;4446;50.876;4.736;2023-04-03T13:27:52;2.83;;;2.20;;
8819;SDS011;4446;50.876;4.736;2023-04-03T13:30:26;2.53;;;2.05;;
8819;SDS011;4446;50.876;4.736;2023-04-03T13:32:55;2.28;;;1.80;;
8819;SDS011;4446;50.876;4.736;2023-04-03T13:35:32;2.53;;;1.73;;
8819;SDS011;4446;50.876;4.736;2023-04-03T13:38:04;2.25;;;2.00;;
8819;SDS011;4446;50.876;4.736;2023-04-03T13:40:32;3.30;;;1.85;;
8819;SDS011;4446;50.876;4.736;2023-04-03T13:43:00;3.25;;;1.83;;
8819;SDS011;4446;50.876;4.736;2023-04-03T13:45:29;3.22;;;1.70;;
8819;SDS011;4446;50.876;4.736;2023-04-03T13:48:07;1.73;;;1.60;;
8819;SDS011;4446;50.876;4.736;2023-04-03T13:50:50;4.28;;;2.00;;
8819;SDS011;4446;50.876;4.736;2023-04-03T13:53:25;1.98;;;1.70;;
8819;SDS011;4446;50.876;4.736;2023-04-03T13:55:57;2.88;;;1.92;;
8819;SDS011;4446;50.876;4.736;2023-04-03T13:58:30;4.88;;;2.00;;
8819;SDS011;4446;50.876;4.736;2023-04-03T14:01:00;2.22;;;1.90;;
8819;SDS011;4446;50.876;4.736;2023-04-03T14:03:37;2.20;;;2.00;;
8819;SDS011;4446;50.876;4.736;2023-04-03T14:06:08;3.42;;;1.90;;
8819;SDS011;4446;50.876;4.736;2023-04-03T14:08:39;3.47;;;1.80;;
8819;SDS011;4446;50.876;4.736;2023-04-03T14:11:09;3.13;;;1.88;;
8819;SDS011;4446;50.876;4.736;2023-04-03T14:13:40;7.30;;;2.22;;
8819;SDS011;4446;50.876;4.736;2023-04-03T14:16:11;3.25;;;2.20;;
8819;SDS011;4446;50.876;4.736;2023-04-03T14:18:39;4.43;;;2.20;;
8819;SDS011;4446;50.876;4.736;2023-04-03T14:21:06;5.97;;;1.73;;
8819;SDS011;4446;50.876;4.736;2023-04-03T14:23:33;2.28;;;1.77;;
8819;SDS011;4446;50.876;4.736;2023-04-03T14:26:01;2.75;;;2.10;;
8819;SDS011;4446;50.876;4.736;2023-04-03T14:28:28;2.25;;;2.03;;
8819;SDS011;4446;50.876;4.736;2023-04-03T14:30:57;3.58;;;2.53;;
8819;SDS011;4446;50.876;4.736;2023-04-03T14:33:24;4.40;;;2.42;;
8819;SDS011;4446;50.876;4.736;2023-04-03T14:35:54;2.83;;;2.55;;
8819;SDS011;4446;50.876;4.736;2023-04-03T14:38:23;4.50;;;2.60;;
8819;SDS011;4446;50.876;4.736;2023-04-03T14:40:51;3.28;;;2.65;;
8819;SDS011;4446;50.876;4.736;2023-04-03T14:43:20;3.55;;;2.50;;
8819;SDS011;4446;50.876;4.736;2023-04-03T14:45:47;3.42;;;2.30;;
8819;SDS011;4446;50.876;4.736;2023-04-03T14:48:16;2.45;;;2.00;;
8819;SDS011;4446;50.876;4.736;2023-04-03T14:50:45;3.08;;;1.85;;
8819;SDS011;4446;50.876;4.736;2023-04-03T14:53:13;3.20;;;1.98;;
8819;SDS011;4446;50.876;4.736;2023-04-03T14:55:41;2.65;;;2.00;;
8819;SDS011;4446;50.876;4.736;2023-04-03T14:58:12;2.55;;;1.90;;
8819;SDS011;4446;50.876;4.736;2023-04-03T15:00:41;2.55;;;2.10;;
8819;SDS011;4446;50.876;4.736;2023-04-03T15:03:12;3.35;;;1.77;;
8819;SDS011;4446;50.876;4.736;2023-04-03T15:05:40;3.10;;;2.00;;
8819;SDS011;4446;50.876;4.736;2023-04-03T15:08:10;2.80;;;2.45;;
8819;SDS011;4446;50.876;4.736;2023-04-03T15:10:44;4.65;;;2.40;;
8819;SDS011;4446;50.876;4.736;2023-04-03T15:13:11;2.20;;;2.00;;
8819;SDS011;4446;50.876;4.736;2023-04-03T15:15:39;3.38;;;2.03;;
8819;SDS011;4446;50.876;4.736;2023-04-03T15:18:09;3.35;;;2.20;;
8819;SDS011;4446;50.876;4.736;2023-04-03T15:20:40;2.65;;;2.10;;
8819;SDS011;4446;50.876;4.736;2023-04-03T15:23:08;5.60;;;2.45;;
8819;SDS011;4446;50.876;4.736;2023-04-03T15:25:36;3.47;;;1.90;;
8819;SDS011;4446;50.876;4.736;2023-04-03T15:28:04;3.22;;;2.40;;
8819;SDS011;4446;50.876;4.736;2023-04-03T15:30:40;3.33;;;2.08;;
8819;SDS011;4446;50.876;4.736;2023-04-03T15:33:09;2.97;;;2.30;;
8819;SDS011;4446;50.876;4.736;2023-04-03T15:35:36;3.20;;;2.30;;
8819;SDS011;4446;50.876;4.736;2023-04-03T15:38:02;3.38;;;2.40;;
8819;SDS011;4446;50.876;4.736;2023-04-03T15:40:29;3.58;;;2.85;;
8819;SDS011;4446;50.876;4.736;2023-04-03T15:42:56;3.20;;;2.30;;
8819;SDS011;4446;50.876;4.736;2023-04-03T15:45:23;3.25;;;2.80;;
8819;SDS011;4446;50.876;4.736;2023-04-03T15:47:50;3.10;;;2.80;;